Time;durP1;ratioP1;P1;durP2;ratioP2;P2;SDS_P1;SDS_P2;PMS_P1;PMS_P2;Temp;Humidity;BMP_temperature;BMP_pressure;BME280_temperature;BME280_humidity;BME280_pressure;Samples;Min_cycle;Max_cycle;Signal;HPM_P1;HPM_P2
2022/09/01 00:03:20;;;;;;;6.65;3.45;;;12.80;99.90;;;;;;9544010;31;20044;-88
2022/09/01 00:08:22;;;;;;;5.25;3.15;;;12.90;99.90;;;;;;9538160;31;20039;-87
2022/09/01 00:13:23;;;;;;;5.53;3.22;;;12.90;99.90;;;;;;9562203;31;20127;-86
2022/09/01 00:18:23;;;;;;;7.35;3.83;;;12.90;99.90;;;;;;9545653;31;20687;-86
2022/09/01 00:23:28;;;;;;;4.03;2.83;;;12.90;99.90;;;;;;9547235;30;20064;-86
2022/09/01 00:28:31;;;;;;;6.43;3.65;;;12.80;99.90;;;;;;9561099;31;20047;-86
2022/09/01 00:33:33;;;;;;;6.47;3.70;;;12.70;99.90;;;;;;9553401;31;20445;-85
2022/09/01 00:38:33;;;;;;;5.53;3.53;;;12.60;99.90;;;;;;9552146;31;20044;-86
2022/09/01 00:43:52;;;;;;;8.25;3.80;;;12.60;99.90;;;;;;9546329;31;20044;-86
2022/09/01 00:48:59;;;;;;;4.97;2.97;;;12.60;99.90;;;;;;9546113;31;20036;-85
2022/09/01 00:54:01;;;;;;;4.50;3.20;;;12.50;99.90;;;;;;9524177;31;20058;-85
2022/09/01 00:59:05;;;;;;;4.90;2.60;;;12.50;99.90;;;;;;9534871;31;20162;-86
2022/09/01 01:04:13;;;;;;;6.90;3.42;;;12.50;99.90;;;;;;9528507;31;20069;-87
2022/09/01 01:09:19;;;;;;;8.35;3.53;;;12.50;99.90;;;;;;9542449;31;20099;-85
2022/09/01 01:14:19;;;;;;;4.05;3.00;;;12.50;99.90;;;;;;9555819;31;20054;-85
2022/09/01 01:24:59;;;;;;;8.40;3.50;;;12.60;99.90;;;;;;9547612;31;20055;-86
2022/09/01 01:30:06;;;;;;;4.68;3.40;;;12.70;99.90;;;;;;9538403;31;20043;-86
2022/09/01 01:35:13;;;;;;;7.05;3.08;;;12.70;99.90;;;;;;9524231;31;20040;-87
2022/09/01 01:40:16;;;;;;;5.35;2.90;;;12.80;99.90;;;;;;9548496;31;20469;-86
2022/09/01 01:45:20;;;;;;;4.53;2.88;;;12.80;99.90;;;;;;9541124;31;20048;-86
2022/09/01 01:50:34;;;;;;;6.20;2.72;;;12.80;99.90;;;;;;9530273;31;20546;-86
2022/09/01 01:55:35;;;;;;;4.93;2.97;;;12.80;99.90;;;;;;9548345;31;20104;-86
2022/09/01 02:00:36;;;;;;;4.43;3.05;;;12.80;99.90;;;;;;9541632;31;20838;-86
2022/09/01 02:05:38;;;;;;;5.78;3.42;;;12.80;99.90;;;;;;9538684;31;20123;-86
2022/09/01 02:10:41;;;;;;;5.13;2.90;;;12.80;99.90;;;;;;9527710;31;20074;-87
2022/09/01 02:15:46;;;;;;;6.20;3.30;;;12.80;99.90;;;;;;9524913;31;20044;-85
2022/09/01 02:20:48;;;;;;;5.63;3.40;;;12.80;99.90;;;;;;9555312;30;20028;-86
2022/09/01 02:25:55;;;;;;;6.15;3.30;;;12.80;99.90;;;;;;9565985;30;20115;-85
2022/09/01 02:30:58;;;;;;;4.80;2.78;;;12.80;99.90;;;;;;9551203;31;20123;-86
2022/09/01 02:36:05;;;;;;;6.00;3.28;;;12.70;99.90;;;;;;9554424;30;20833;-86
2022/09/01 02:41:06;;;;;;;4.05;2.78;;;12.70;99.90;;;;;;9551771;30;20493;-86
2022/09/01 02:46:07;;;;;;;5.10;2.70;;;12.70;99.90;;;;;;9532643;31;20032;-86
2022/09/01 02:51:16;;;;;;;6.57;2.97;;;12.70;99.90;;;;;;9564786;31;20036;-86
2022/09/01 02:56:19;;;;;;;3.92;2.80;;;12.60;99.90;;;;;;9562636;31;20067;-86
2022/09/01 03:01:31;;;;;;;5.40;2.90;;;12.60;99.90;;;;;;9549181;31;20051;-86
2022/09/01 03:06:32;;;;;;;4.13;2.88;;;12.60;99.90;;;;;;9557745;31;20044;-85
2022/09/01 03:11:36;;;;;;;4.10;2.90;;;12.60;99.90;;;;;;9569985;30;20184;-86
2022/09/01 03:16:38;;;;;;;5.95;3.58;;;12.50;99.90;;;;;;9566204;30;20051;-86
2022/09/01 03:21:41;;;;;;;6.55;3.20;;;12.50;99.90;;;;;;9548694;31;20048;-86
2022/09/01 03:26:43;;;;;;;6.15;2.85;;;12.50;99.90;;;;;;9544909;31;20548;-85
2022/09/01 03:31:43;;;;;;;6.82;3.75;;;12.40;99.90;;;;;;9555970;31;20051;-85
2022/09/01 03:36:48;;;;;;;6.28;3.15;;;12.40;99.90;;;;;;9549000;31;20432;-85
2022/09/01 03:41:49;;;;;;;5.07;3.35;;;12.40;99.90;;;;;;9542155;31;20119;-85
2022/09/01 03:46:51;;;;;;;5.38;3.58;;;12.40;99.90;;;;;;9539992;31;20047;-86
2022/09/01 03:51:56;;;;;;;5.60;3.75;;;12.40;99.90;;;;;;9539849;31;20036;-88
2022/09/01 03:56:58;;;;;;;7.40;3.17;;;12.40;99.90;;;;;;9542781;31;20090;-85
2022/09/01 04:02:01;;;;;;;8.10;3.33;;;12.40;99.90;;;;;;9553408;31;20044;-86
2022/09/01 04:07:02;;;;;;;4.80;3.28;;;12.40;99.90;;;;;;9540707;31;20050;-86
2022/09/01 04:12:06;;;;;;;7.57;3.60;;;12.40;99.90;;;;;;9531373;31;20051;-86
2022/09/01 04:22:30;;;;;;;4.35;3.45;;;12.40;99.90;;;;;;9535525;31;20060;-85
2022/09/01 04:27:31;;;;;;;6.45;3.90;;;12.40;99.90;;;;;;9532535;31;20036;-83
2022/09/01 04:32:34;;;;;;;7.22;3.92;;;12.40;99.90;;;;;;9532535;31;20043;-84
2022/09/01 04:37:35;;;;;;;7.28;3.55;;;12.40;99.90;;;;;;9537282;31;20530;-84
2022/09/01 04:42:35;;;;;;;6.60;3.65;;;12.40;99.90;;;;;;9533888;31;20047;-85
2022/09/01 04:47:40;;;;;;;5.88;4.10;;;12.50;99.90;;;;;;9533741;31;20540;-85
2022/09/01 04:52:42;;;;;;;5.53;3.42;;;12.50;99.90;;;;;;9527638;31;20043;-84
2022/09/01 04:57:48;;;;;;;6.50;4.55;;;12.50;99.90;;;;;;9529461;31;20486;-85
2022/09/01 05:03:01;;;;;;;;;;;12.60;99.90;;;;;;9530637;31;20533;-84
2022/09/01 05:08:02;;;;;;;6.15;3.75;;;12.60;99.90;;;;;;9533754;31;19953;-84
2022/09/01 05:13:08;;;;;;;4.10;3.03;;;12.60;99.90;;;;;;9525152;31;20564;-84
2022/09/01 05:18:09;;;;;;;4.10;3.30;;;12.60;99.90;;;;;;9531189;31;20064;-84
2022/09/01 05:23:18;;;;;;;9.23;3.58;;;12.70;99.90;;;;;;9529230;31;20576;-83
2022/09/01 05:28:21;;;;;;;6.57;3.80;;;12.70;99.90;;;;;;9536406;31;20036;-85
2022/09/01 05:33:22;;;;;;;5.95;3.22;;;12.80;99.90;;;;;;9529398;31;20414;-84
2022/09/01 05:38:24;;;;;;;5.93;3.30;;;12.80;99.90;;;;;;9530291;31;20055;-84
2022/09/01 05:43:26;;;;;;;5.20;3.33;;;12.90;99.90;;;;;;9527417;30;20665;-85
2022/09/01 05:48:30;;;;;;;5.70;3.03;;;13.00;99.90;;;;;;9526364;31;20040;-84
2022/09/01 05:53:32;;;;;;;7.07;3.88;;;13.20;99.90;;;;;;9529127;31;20044;-85
2022/09/01 05:58:34;;;;;;;6.95;3.35;;;13.20;99.90;;;;;;9526077;31;20059;-85
2022/09/01 06:03:35;;;;;;;7.45;3.67;;;13.30;99.90;;;;;;9542529;31;20533;-84
2022/09/01 06:08:36;;;;;;;4.78;2.97;;;13.40;99.90;;;;;;9537095;31;20040;-84
2022/09/01 06:13:40;;;;;;;5.45;2.95;;;13.50;99.90;;;;;;9539431;31;20039;-85
2022/09/01 06:18:42;;;;;;;5.00;3.00;;;13.70;99.90;;;;;;9534962;31;20139;-85
2022/09/01 06:23:43;;;;;;;10.30;3.15;;;13.80;99.90;;;;;;9538861;31;20142;-85
2022/09/01 06:28:45;;;;;;;4.15;2.40;;;13.80;99.90;;;;;;9539488;31;20044;-85
2022/09/01 06:33:46;;;;;;;3.72;2.08;;;13.90;99.90;;;;;;9537384;31;20040;-84
2022/09/01 06:38:48;;;;;;;5.80;2.30;;;14.10;99.90;;;;;;9538511;31;20096;-84
2022/09/01 06:43:51;;;;;;;4.88;1.98;;;14.30;99.90;;;;;;9540557;31;20050;-84
2022/09/01 06:48:53;;;;;;;4.47;2.35;;;14.50;99.90;;;;;;9536298;30;20649;-85
2022/09/01 06:53:58;;;;;;;3.80;2.03;;;14.70;99.90;;;;;;9536934;30;20470;-85
2022/09/01 06:59:03;;;;;;;4.00;2.40;;;14.90;99.90;;;;;;9535796;31;20059;-85
2022/09/01 07:04:04;;;;;;;;;;;14.90;99.90;;;;;;9539192;31;20058;-84
2022/09/01 07:09:05;;;;;;;5.43;2.22;;;14.90;99.90;;;;;;9536695;31;19917;-85
2022/09/01 07:14:05;;;;;;;2.65;1.55;;;15.10;99.90;;;;;;9539209;31;20166;-85
2022/09/01 07:19:14;;;;;;;2.78;1.80;;;15.30;99.90;;;;;;9537175;31;20039;-84
2022/09/01 07:24:17;;;;;;;2.50;1.60;;;15.60;99.90;;;;;;9536574;31;20056;-85
2022/09/01 07:29:18;;;;;;;2.55;1.40;;;16.00;99.90;;;;;;9532887;31;20061;-85
2022/09/01 07:34:20;;;;;;;2.95;1.30;;;16.20;99.90;;;;;;9534255;31;20047;-84
2022/09/01 07:39:21;;;;;;;2.10;1.15;;;16.40;99.90;;;;;;9535629;31;20801;-85
2022/09/01 07:44:21;;;;;;;3.78;1.58;;;16.50;99.90;;;;;;9541063;31;20031;-84
2022/09/01 07:49:22;;;;;;;1.25;1.10;;;16.80;99.90;;;;;;9544689;31;20036;-86
2022/09/01 07:54:24;;;;;;;2.45;1.13;;;16.80;97.40;;;;;;9556377;31;20053;-85
2022/09/01 07:59:26;;;;;;;3.20;1.30;;;16.90;97.10;;;;;;9543910;31;20462;-85
2022/09/01 08:04:27;;;;;;;1.25;0.77;;;17.20;97.50;;;;;;9539523;31;20111;-85
2022/09/01 08:09:27;;;;;;;1.65;0.85;;;17.60;97.10;;;;;;9554519;31;20182;-85
2022/09/01 08:14:30;;;;;;;1.33;1.10;;;17.70;94.10;;;;;;9546710;30;20052;-85
2022/09/01 08:19:30;;;;;;;3.50;1.50;;;17.80;93.90;;;;;;9544045;31;20036;-84
2022/09/01 08:24:31;;;;;;;1.73;1.10;;;18.00;93.20;;;;;;9559429;31;20278;-85
2022/09/01 08:29:32;;;;;;;1.48;1.13;;;18.00;93.20;;;;;;9544097;30;20041;-86
2022/09/01 08:34:33;;;;;;;3.15;1.33;;;18.00;94.20;;;;;;9544227;31;20083;-87
2022/09/01 08:39:34;;;;;;;1.25;0.85;;;18.50;93.30;;;;;;9544130;31;20036;-85
2022/09/01 08:45:08;;;;;;;2.80;1.33;;;18.40;90.70;;;;;;9551222;31;20446;-85
2022/09/01 08:50:10;;;;;;;1.70;0.77;;;18.80;89.80;;;;;;9540459;31;20044;-85
2022/09/01 08:55:26;;;;;;;2.08;0.98;;;19.00;86.70;;;;;;9538454;31;20044;-85
2022/09/01 09:00:31;;;;;;;2.28;1.27;;;19.00;89.20;;;;;;9545032;31;20044;-82
2022/09/01 09:05:37;;;;;;;1.35;0.73;;;19.20;87.60;;;;;;9541652;31;20077;-83
2022/09/01 09:10:42;;;;;;;1.42;0.50;;;19.60;79.20;;;;;;9534658;31;20043;-83
2022/09/01 09:15:59;;;;;;;1.13;0.47;;;19.40;79.30;;;;;;9548918;31;20043;-85
2022/09/01 09:21:43;;;;;;;1.23;0.82;;;19.40;78.00;;;;;;9539395;31;20066;-83
2022/09/01 09:26:52;;;;;;;2.30;0.70;;;19.40;77.70;;;;;;9540786;31;20107;-84
2022/09/01 09:32:07;;;;;;;1.75;0.90;;;19.60;77.00;;;;;;9545925;31;20533;-84
2022/09/01 09:37:23;;;;;;;;;;;20.10;76.80;;;;;;9533568;31;20051;-83
2022/09/01 09:42:26;;;;;;;1.23;0.47;;;20.00;73.10;;;;;;9541516;31;19917;-85
2022/09/01 09:47:45;;;;;;;3.35;1.13;;;20.10;73.90;;;;;;9552831;31;20123;-83
2022/09/01 09:52:47;;;;;;;1.30;0.73;;;20.50;67.70;;;;;;9551675;31;20039;-85
2022/09/01 09:57:49;;;;;;;1.10;0.60;;;20.50;71.30;;;;;;9544681;31;20055;-84
2022/09/01 10:03:00;;;;;;;0.60;0.60;;;20.50;72.20;;;;;;9549858;31;20099;-84
2022/09/01 10:08:01;;;;;;;0.77;0.65;;;20.90;73.80;;;;;;9556484;31;20040;-83
2022/09/01 10:13:02;;;;;;;1.52;0.82;;;21.00;67.90;;;;;;9547305;30;20164;-85
2022/09/01 10:18:13;;;;;;;3.58;0.80;;;20.90;71.80;;;;;;9544244;30;20482;-85
2022/09/01 10:23:14;;;;;;;2.03;0.90;;;20.60;72.30;;;;;;9524327;31;20134;-83
2022/09/01 10:28:20;;;;;;;1.17;0.70;;;20.30;73.20;;;;;;9536508;31;20043;-84
2022/09/01 10:33:21;;;;;;;0.95;0.70;;;19.70;75.90;;;;;;9524531;31;20111;-83
2022/09/01 10:38:28;;;;;;;0.60;0.45;;;19.80;73.50;;;;;;9549912;31;20126;-84
2022/09/01 10:43:40;;;;;;;2.92;0.50;;;19.40;74.30;;;;;;9538860;31;20150;-84
2022/09/01 10:48:41;;;;;;;3.80;0.73;;;19.00;72.10;;;;;;9550410;31;20042;-83
2022/09/01 10:53:42;;;;;;;0.90;0.60;;;19.60;76.70;;;;;;9564228;31;20070;-85
2022/09/01 10:59:02;;;;;;;1.77;0.45;;;20.20;74.10;;;;;;9574865;31;20160;-85
2022/09/01 11:04:02;;;;;;;3.05;0.80;;;20.60;70.80;;;;;;9571876;31;20090;-85
2022/09/01 11:09:05;;;;;;;2.25;0.63;;;20.30;69.50;;;;;;9573275;31;20146;-85
2022/09/01 11:14:25;;;;;;;0.85;0.60;;;20.50;71.60;;;;;;9565342;31;20126;-86
2022/09/01 11:19:47;;;;;;;1.23;0.63;;;20.90;64.90;;;;;;9524299;31;20506;-84
2022/09/01 11:25:09;;;;;;;1.20;0.50;;;21.10;66.60;;;;;;9536355;31;20071;-85
2022/09/01 11:30:16;;;;;;;1.90;0.65;;;21.60;66.20;;;;;;9551978;31;20083;-85
2022/09/01 11:35:24;;;;;;;4.38;0.52;;;20.40;65.80;;;;;;9546489;31;20517;-84
2022/09/01 11:40:31;;;;;;;0.82;0.50;;;20.20;66.40;;;;;;9550382;31;20032;-85
2022/09/01 11:45:43;;;;;;;1.27;0.50;;;20.60;65.90;;;;;;9541977;31;20081;-84
2022/09/01 11:50:43;;;;;;;1.17;0.40;;;21.40;67.30;;;;;;9563915;31;20481;-84
2022/09/01 11:55:47;;;;;;;0.90;0.60;;;20.70;64.90;;;;;;9538195;31;20058;-84
2022/09/01 12:00:48;;;;;;;0.88;0.40;;;20.40;68.30;;;;;;9541022;31;20038;-85
2022/09/01 12:05:58;;;;;;;0.85;0.30;;;20.00;66.90;;;;;;9532869;31;20038;-85
2022/09/01 12:11:29;;;;;;;0.65;0.35;;;19.60;69.80;;;;;;9545564;31;20035;-84
2022/09/01 12:16:33;;;;;;;2.72;0.47;;;19.90;75.50;;;;;;9543695;31;20574;-86
2022/09/01 12:21:41;;;;;;;0.47;0.40;;;21.00;68.60;;;;;;9553814;31;20039;-85
2022/09/01 12:26:43;;;;;;;1.77;0.80;;;21.30;64.50;;;;;;9554723;31;20167;-84
2022/09/01 12:31:47;;;;;;;1.98;0.75;;;20.90;65.40;;;;;;9553963;31;20039;-87
2022/09/01 12:37:02;;;;;;;0.80;0.40;;;21.20;64.40;;;;;;9538211;31;20542;-85
2022/09/01 12:42:23;;;;;;;0.68;0.60;;;20.80;63.20;;;;;;9521101;31;20047;-85
2022/09/01 12:47:33;;;;;;;0.52;0.40;;;20.20;67.60;;;;;;9541790;31;20044;-85
2022/09/01 12:52:41;;;;;;;1.10;0.60;;;19.90;71.80;;;;;;9538471;31;20075;-87
2022/09/01 12:57:50;;;;;;;0.47;0.40;;;20.50;67.10;;;;;;9555212;31;20055;-84
2022/09/01 13:03:03;;;;;;;1.48;0.82;;;19.90;65.30;;;;;;9538479;31;20098;-85
2022/09/01 13:08:13;;;;;;;0.55;0.50;;;19.60;66.80;;;;;;9538880;31;20040;-85
2022/09/01 13:13:15;;;;;;;0.90;0.45;;;20.30;67.20;;;;;;9544403;31;20131;-85
2022/09/01 13:18:17;;;;;;;0.45;0.25;;;20.80;63.00;;;;;;9548454;30;20055;-86
2022/09/01 13:24:03;;;;;;;0.40;0.30;;;21.00;62.90;;;;;;9526657;31;20175;-85
2022/09/01 13:29:04;;;;;;;0.45;0.30;;;21.30;65.80;;;;;;9534551;31;20184;-85
2022/09/01 13:34:05;;;;;;;1.20;0.50;;;21.10;61.30;;;;;;9521431;31;20557;-82
2022/09/01 13:39:06;;;;;;;0.70;0.40;;;21.00;63.00;;;;;;9531857;31;20829;-86
2022/09/01 13:44:09;;;;;;;1.02;0.40;;;21.20;64.10;;;;;;9532176;31;20046;-84
2022/09/01 13:49:13;;;;;;;1.10;0.57;;;21.10;63.70;;;;;;9537203;31;20043;-84
2022/09/01 13:54:22;;;;;;;4.22;0.40;;;21.20;61.70;;;;;;9543659;31;20099;-84
2022/09/01 13:59:23;;;;;;;1.10;0.30;;;21.20;60.70;;;;;;9544542;31;20762;-83
2022/09/01 14:04:24;;;;;;;0.70;0.30;;;20.70;59.40;;;;;;9532853;31;20042;-85
2022/09/01 14:09:25;;;;;;;0.70;0.52;;;20.70;60.70;;;;;;9542662;31;20067;-84
2022/09/01 14:14:26;;;;;;;2.65;0.63;;;20.60;60.40;;;;;;9532160;31;20059;-82
2022/09/01 14:19:28;;;;;;;1.27;0.50;;;20.30;62.20;;;;;;9534275;31;20143;-86
2022/09/01 14:24:29;;;;;;;1.50;0.52;;;20.00;64.30;;;;;;9536756;31;20063;-86
2022/09/01 14:29:30;;;;;;;2.15;0.68;;;19.80;63.80;;;;;;9547792;31;20551;-88
2022/09/01 14:34:30;;;;;;;0.95;0.38;;;19.90;62.20;;;;;;9542505;31;20071;-85
2022/09/01 14:39:31;;;;;;;2.90;0.57;;;19.60;64.40;;;;;;9542414;31;20052;-84
2022/09/01 14:44:34;;;;;;;2.78;0.70;;;19.20;64.60;;;;;;9549983;31;20099;-86
2022/09/01 14:49:35;;;;;;;1.02;0.40;;;19.20;66.30;;;;;;9544187;31;20054;-87
2022/09/01 14:54:38;;;;;;;2.08;0.60;;;19.30;67.10;;;;;;9543648;31;20060;-84
2022/09/01 14:59:40;;;;;;;2.20;0.70;;;19.20;66.60;;;;;;9527844;31;20058;-86
2022/09/01 15:04:41;;;;;;;2.72;0.80;;;19.00;67.60;;;;;;9539827;31;20684;-82
2022/09/01 15:09:41;;;;;;;3.83;0.90;;;19.00;68.10;;;;;;9546790;31;20110;-88
2022/09/01 15:14:42;;;;;;;0.98;0.30;;;19.00;71.10;;;;;;9548378;31;20059;-86
2022/09/01 15:19:42;;;;;;;0.40;0.30;;;19.00;68.50;;;;;;9543168;31;20405;-86
2022/09/01 15:24:43;;;;;;;1.42;0.47;;;18.90;70.20;;;;;;9545104;31;20052;-85
2022/09/01 15:29:46;;;;;;;0.98;0.38;;;18.90;72.80;;;;;;9527827;31;20039;-86
2022/09/01 15:34:47;;;;;;;1.95;0.50;;;19.10;71.60;;;;;;9531904;31;20055;-87
2022/09/01 15:39:47;;;;;;;2.45;0.30;;;19.40;70.10;;;;;;9528427;31;20042;-86
2022/09/01 15:44:48;;;;;;;0.80;0.40;;;19.50;69.60;;;;;;9531141;31;20050;-85
2022/09/01 15:49:49;;;;;;;3.00;1.25;;;19.50;69.20;;;;;;9538363;31;20032;-84
2022/09/01 15:54:49;;;;;;;0.75;0.52;;;19.40;70.30;;;;;;9529009;30;20131;-86
2022/09/01 15:59:50;;;;;;;2.78;0.60;;;19.10;66.40;;;;;;9551718;31;20042;-86
2022/09/01 16:04:51;;;;;;;2.88;0.90;;;18.80;69.30;;;;;;9539142;30;20576;-89
2022/09/01 16:09:55;;;;;;;0.93;0.40;;;18.60;68.70;;;;;;9526173;31;20040;-86
2022/09/01 16:15:00;;;;;;;2.50;0.60;;;18.40;70.20;;;;;;9534426;31;20055;-88
2022/09/01 16:20:12;;;;;;;1.10;0.70;;;18.20;70.50;;;;;;9533367;31;20048;-89
2022/09/01 16:25:22;;;;;;;1.95;0.82;;;18.10;71.10;;;;;;9537651;31;20578;-89
2022/09/01 16:30:26;;;;;;;2.55;0.65;;;18.00;72.20;;;;;;9534876;31;20046;-88
2022/09/01 16:36:06;;;;;;;1.25;1.10;;;18.00;74.30;;;;;;9524430;31;20043;-88
2022/09/01 16:41:20;;;;;;;2.28;0.90;;;17.70;76.40;;;;;;9530312;31;20048;-88
2022/09/01 16:46:36;;;;;;;1.27;1.00;;;17.50;74.90;;;;;;9541162;31;20126;-88
2022/09/01 16:57:57;;;;;;;2.17;1.33;;;17.20;77.80;;;;;;9527628;31;20060;-88
2022/09/01 17:27:06;;;;;;;;;;;15.50;87.40;;;;;;9604176;30;20634;-90
2022/09/01 17:32:31;;;;;;;1.75;1.30;;;14.90;90.50;;;;;;9596394;30;20424;-91
2022/09/01 17:38:07;;;;;;;3.88;1.67;;;14.60;91.30;;;;;;9596092;30;20493;-91
2022/09/01 17:43:08;;;;;;;2.20;1.65;;;14.30;92.60;;;;;;9591714;30;20383;-91
2022/09/01 17:54:22;;;;;;;2.67;2.30;;;14.00;96.80;;;;;;9608462;30;20126;-88
2022/09/01 17:59:45;;;;;;;4.53;3.45;;;14.00;99.90;;;;;;9598879;30;20082;-89
2022/09/01 18:05:07;;;;;;;5.13;2.60;;;14.00;99.90;;;;;;9600292;30;20495;-90
2022/09/01 18:16:19;;;;;;;3.78;2.00;;;14.20;99.90;;;;;;9611383;30;20561;-89
2022/09/01 18:21:25;;;;;;;3.15;2.10;;;14.40;99.90;;;;;;9594042;30;20074;-89
2022/09/01 18:26:33;;;;;;;4.18;2.33;;;14.60;99.90;;;;;;9596496;30;20126;-88
2022/09/01 18:31:33;;;;;;;3.63;2.60;;;14.60;99.90;;;;;;9607097;30;20059;-86
2022/09/01 18:43:00;;;;;;;5.80;2.22;;;14.60;99.90;;;;;;9610435;30;20050;-91
2022/09/01 18:48:10;;;;;;;2.40;2.20;;;14.30;99.90;;;;;;9590248;30;20062;-90
2022/09/01 18:53:41;;;;;;;5.82;2.72;;;13.90;99.90;;;;;;9591300;30;20112;-89
2022/09/01 18:59:24;;;;;;;3.55;2.20;;;13.60;99.90;;;;;;9576373;30;20153;-92
2022/09/01 19:04:49;;;;;;;4.72;2.55;;;13.50;99.90;;;;;;9593066;30;20039;-89
2022/09/01 19:10:25;;;;;;;6.05;3.40;;;13.20;99.90;;;;;;9592243;30;20049;-86
2022/09/01 19:16:05;;;;;;;4.72;2.58;;;13.00;99.90;;;;;;9572222;30;20125;-89
2022/09/01 19:21:27;;;;;;;4.78;2.70;;;13.00;99.90;;;;;;9608718;30;20083;-89
2022/09/01 19:26:36;;;;;;;4.03;2.97;;;12.70;99.90;;;;;;9591105;30;20134;-88
2022/09/01 19:31:45;;;;;;;6.05;3.00;;;12.60;99.90;;;;;;9589957;30;20105;-89
2022/09/01 19:36:58;;;;;;;5.97;3.25;;;12.40;99.90;;;;;;9604183;30;20039;-89
2022/09/01 19:42:02;;;;;;;5.15;3.30;;;12.30;99.90;;;;;;9605544;30;20050;-89
2022/09/01 19:47:12;;;;;;;4.55;2.97;;;12.10;99.90;;;;;;9591557;30;20053;-88
2022/09/01 19:52:26;;;;;;;4.68;3.08;;;12.00;99.90;;;;;;9594549;30;20035;-88
2022/09/01 19:57:43;;;;;;;4.07;2.78;;;11.90;99.90;;;;;;9587522;30;20513;-88
2022/09/01 20:03:17;;;;;;;6.55;2.97;;;11.80;99.90;;;;;;9586943;30;20050;-89
2022/09/01 20:08:35;;;;;;;4.95;3.17;;;11.60;99.90;;;;;;9574014;30;20046;-88
2022/09/01 20:14:33;;;;;;;6.90;3.05;;;11.50;99.90;;;;;;9592877;30;20043;-88
2022/09/01 20:19:44;;;;;;;8.43;3.47;;;11.40;99.90;;;;;;9482404;31;20100;-85
2022/09/01 20:24:45;;;;;;;6.93;3.20;;;11.30;99.90;;;;;;9572098;30;20101;-89
2022/09/01 20:29:56;;;;;;;5.35;3.20;;;11.20;99.90;;;;;;9593420;30;20556;-89
2022/09/01 20:35:21;;;;;;;4.57;3.15;;;11.20;99.90;;;;;;9594846;30;20043;-90
2022/09/01 20:40:30;;;;;;;5.13;3.47;;;11.10;99.90;;;;;;9595538;30;20050;-89
2022/09/01 20:45:31;;;;;;;6.35;3.20;;;11.10;99.90;;;;;;9591204;30;20187;-90
2022/09/01 20:50:41;;;;;;;5.32;2.95;;;11.00;99.90;;;;;;9593763;30;20078;-90
2022/09/01 20:55:51;;;;;;;4.90;3.33;;;11.10;99.90;;;;;;9587814;30;20059;-89
2022/09/01 21:00:58;;;;;;;4.38;3.80;;;11.00;99.90;;;;;;9593699;30;20047;-89
2022/09/01 21:06:20;;;;;;;5.80;4.13;;;10.90;99.90;;;;;;9593800;30;20037;-89
2022/09/01 21:11:49;;;;;;;5.63;3.72;;;10.90;99.90;;;;;;9590811;30;20157;-90
2022/09/01 21:17:20;;;;;;;7.70;4.47;;;10.80;99.90;;;;;;9591383;30;20053;-88
2022/09/01 21:22:21;;;;;;;4.47;3.40;;;10.90;99.90;;;;;;9589248;30;20063;-89
2022/09/01 21:27:35;;;;;;;5.78;3.78;;;10.90;99.90;;;;;;9590968;30;20494;-89
2022/09/01 21:32:36;;;;;;;4.88;3.45;;;11.00;99.90;;;;;;9589458;30;20121;-89
2022/09/01 21:37:37;;;;;;;5.80;3.67;;;11.00;99.90;;;;;;9587646;30;20125;-89
2022/09/01 21:42:43;;;;;;;6.07;3.45;;;11.10;99.90;;;;;;9591288;30;20066;-89
2022/09/01 21:47:45;;;;;;;8.18;3.28;;;11.00;99.90;;;;;;9594171;30;20158;-89
2022/09/01 21:52:46;;;;;;;6.25;3.63;;;10.90;99.90;;;;;;9591766;30;20449;-88
2022/09/01 21:57:47;;;;;;;6.30;3.85;;;10.90;99.90;;;;;;9593262;30;20051;-89
2022/09/01 22:02:48;;;;;;;5.50;3.50;;;10.80;99.90;;;;;;9592595;30;20481;-90
2022/09/01 22:07:49;;;;;;;5.38;3.65;;;10.80;99.90;;;;;;9592078;30;20042;-89
2022/09/01 22:12:51;;;;;;;7.80;3.58;;;10.90;99.90;;;;;;9592225;30;20069;-90
2022/09/01 22:17:54;;;;;;;5.63;3.60;;;11.00;99.90;;;;;;9586240;30;20074;-89
2022/09/01 22:23:00;;;;;;;6.97;3.67;;;11.10;99.90;;;;;;9590532;30;20110;-90
2022/09/01 22:28:03;;;;;;;6.00;3.63;;;11.00;99.90;;;;;;9607155;30;20047;-89
2022/09/01 22:33:06;;;;;;;6.68;3.80;;;10.90;99.90;;;;;;9593887;30;20050;-89
2022/09/01 22:38:07;;;;;;;9.45;3.80;;;10.90;99.90;;;;;;9594042;30;20053;-89
2022/09/01 22:43:08;;;;;;;6.28;4.22;;;10.90;99.90;;;;;;9597812;30;20580;-89
2022/09/01 22:48:08;;;;;;;5.20;3.40;;;11.00;99.90;;;;;;9600189;30;20035;-89
2022/09/01 22:53:10;;;;;;;7.28;3.63;;;11.20;99.90;;;;;;9600304;30;20046;-90
2022/09/01 22:58:11;;;;;;;4.70;3.50;;;11.40;99.90;;;;;;9599918;30;20405;-89
2022/09/01 23:03:13;;;;;;;5.13;3.30;;;11.50;99.90;;;;;;9598511;30;20062;-89
2022/09/01 23:08:15;;;;;;;5.10;3.30;;;11.60;99.90;;;;;;9599656;30;20139;-90
2022/09/01 23:13:16;;;;;;;6.18;2.92;;;11.70;99.90;;;;;;9598481;30;20486;-89
2022/09/01 23:18:18;;;;;;;4.88;3.08;;;11.70;99.90;;;;;;9596118;30;20395;-89
2022/09/01 23:23:19;;;;;;;4.72;3.17;;;11.70;99.90;;;;;;9590415;30;20065;-88
2022/09/01 23:28:19;;;;;;;4.70;3.00;;;11.60;99.90;;;;;;9594585;30;20708;-89
2022/09/01 23:33:22;;;;;;;3.50;2.90;;;11.50;99.90;;;;;;9597216;30;20035;-89
2022/09/01 23:38:24;;;;;;;4.85;3.58;;;11.50;99.90;;;;;;9594978;30;20075;-89
2022/09/01 23:43:26;;;;;;;3.67;2.65;;;11.40;99.90;;;;;;9596969;30;20038;-89
2022/09/01 23:48:27;;;;;;;6.25;2.83;;;11.40;99.90;;;;;;9595108;30;20046;-90
2022/09/01 23:53:30;;;;;;;4.18;3.08;;;11.30;99.90;;;;;;9594185;30;20051;-89
2022/09/01 23:58:31;;;;;;;4.38;2.65;;;11.30;99.90;;;;;;9595655;30;20141;-89
